Bradford, PA

1:11 AM EDT on May 06, 2015 (GMT -0400)
Sleepy Hollow | | Change Station
CLOSE
Current Station
Personal Weather Station
Location: Bradford, PA
Elevation: 1588 ft
Nearby Weather Stations

Elev 1588 ft 41.95 °N, 78.71 °W | Updated 3 seconds ago

Overcast
Overcast
56.3 °F
Feels Like 56.3 °F
N
0.0
Wind Variable Wind from ENE
Gusts 0.0 mph

Today
High -- | Low -- °F
--% Chance of Precip.
Yesterday
High -- | Low -- °F
Precip. -- in
6:04 AM 8:18 PM
Waning Gibbous, 96% visible
Pressure 30.26 in
Visibility 3.0 miles
Clouds Mostly Cloudy 200 ft
Overcast 7500 ft
Dew Point 56 °F
Humidity 100%
Rainfall 0.05 in
Snow Depth Not available.
UV 0.0 out of 12
Pollen 6.90 out of 12
Air Quality Not available.
Flu Activity Sporadic
METAR KBFD 060453Z AUTO 11004KT 3SM -RA BR BKN002 OVC075 13/12 A3028 RMK AO2 SLP245 P0002 T01280122 402220128

More Conditions Fewer Conditions

Pressure 30.26 in
Visibility 3.0 miles
Clouds Mostly Cloudy 200 ft
Overcast 7500 ft
Dew Point 56 °F
Humidity 100%
Rainfall 0.05 in
Snow Depth Not available.
UV 0.0 out of 12
Pollen 6.90 out of 12
Air Quality Not available.
Flu Activity Sporadic
METAR KBFD 060453Z AUTO 11004KT 3SM -RA BR BKN002 OVC075 13/12 A3028 RMK AO2 SLP245 P0002 T01280122 402220128

More Conditions Fewer Conditions

Nowcast | as of 12:15 am EDT on May 6, 2015

A few showers will be across the area overnight. Most of the activity will be north of a Clearfield...State College...Pottsville line through 2 am. The showers are moving southeast at 20 mph.

×

10-Day Weather Forecast

Almanac

Astronomy

May. 06, 2015 Rise Set
Actual Time
Civil Twilight
Nautical Twilight
Astronomical Twilight
Moon
Length of Visible Light
Length of Day
Tomorrow will be .
, % of the Moon is Illuminated

Today's Extremes

State Highs State Lows

Community

WunderPhotos

Upload Photos

1,818,838 photos uploaded!

WunderBlogs® & News

Nearby

Air Quality

  Air Quality AQ Index Pollutant
Not available.

Snow Depth

Station Depth Elevation

Earthquake Activity

City Distance Mag. Time & Date
Minimum magnitude displayed is 2.5.

Coastal Water Temperatures

Place Temperature

Stations

Nearby Weather Stations

Station Location Temp. Windchill Dew Point Humidity Wind Precip. Elev Updated Type